Time;durP1;ratioP1;P1;durP2;ratioP2;P2;SDS_P1;SDS_P2;PMS_P1;PMS_P2;Temp;Humidity;BMP_temperature;BMP_pressure;BME280_temperature;BME280_humidity;BME280_pressure;Samples;Min_cycle;Max_cycle;Signal;HPM_P1;HPM_P2
2022/08/15 00:01:36;;;;;;;20.35;4.07;;;;;;;;;;4944082;28;20054;-74
2022/08/15 00:04:05;;;;;;;20.48;3.70;;;;;;;;;;4934327;29;20501;-74
2022/08/15 00:06:42;;;;;;;16.33;3.97;;;;;;;;;;4947863;28;20044;-74
2022/08/15 00:09:18;;;;;;;19.10;3.80;;;;;;;;;;4951397;28;20051;-75
2022/08/15 00:11:47;;;;;;;20.55;3.95;;;;;;;;;;4952544;28;20047;-75
2022/08/15 00:14:31;;;;;;;17.85;3.50;;;;;;;;;;4952315;28;20043;-74
2022/08/15 00:17:01;;;;;;;18.75;3.90;;;;;;;;;;4951776;28;20402;-74
2022/08/15 00:19:30;;;;;;;18.77;4.22;;;;;;;;;;4954394;28;20055;-73
2022/08/15 00:22:01;;;;;;;20.85;3.72;;;;;;;;;;4956627;28;20050;-74
2022/08/15 00:24:30;;;;;;;14.73;3.85;;;;;;;;;;4951863;28;20058;-74
2022/08/15 00:26:58;;;;;;;18.98;3.65;;;;;;;;;;4934857;29;20091;-72
2022/08/15 00:29:27;;;;;;;18.20;3.50;;;;;;;;;;4946281;29;20142;-75
2022/08/15 00:31:54;;;;;;;18.95;3.45;;;;;;;;;;4932343;29;20044;-75
2022/08/15 00:34:21;;;;;;;20.02;3.65;;;;;;;;;;4932526;29;20502;-75
2022/08/15 00:36:48;;;;;;;16.42;3.42;;;;;;;;;;4930904;29;20115;-73
2022/08/15 00:39:15;;;;;;;25.38;3.75;;;;;;;;;;4935654;28;20524;-74
2022/08/15 00:41:42;;;;;;;27.83;3.33;;;;;;;;;;4951880;28;20120;-74
2022/08/15 00:44:15;;;;;;;15.75;3.72;;;;;;;;;;4952742;28;20230;-75
2022/08/15 00:46:45;;;;;;;16.02;3.63;;;;;;;;;;4952601;28;20055;-74
2022/08/15 00:49:12;;;;;;;17.58;3.65;;;;;;;;;;4955502;28;20059;-73
2022/08/15 00:51:46;;;;;;;13.73;3.50;;;;;;;;;;4952615;28;20052;-76
2022/08/15 00:54:21;;;;;;;17.05;3.22;;;;;;;;;;4953684;28;20499;-74
2022/08/15 00:56:57;;;;;;;13.02;3.28;;;;;;;;;;4954090;28;20051;-76
2022/08/15 00:59:32;;;;;;;13.48;3.50;;;;;;;;;;4952369;28;20276;-78
2022/08/15 01:02:01;;;;;;;21.38;3.97;;;;;;;;;;4950554;28;20049;-75
2022/08/15 01:04:27;;;;;;;12.40;2.80;;;;;;;;;;4950498;28;20043;-74
2022/08/15 01:06:58;;;;;;;14.25;3.05;;;;;;;;;;4950065;28;20651;-74
2022/08/15 01:09:26;;;;;;;16.80;3.20;;;;;;;;;;4949761;28;20051;-74
2022/08/15 01:11:57;;;;;;;17.25;3.10;;;;;;;;;;4935865;28;20118;-73
2022/08/15 01:14:24;;;;;;;19.67;3.55;;;;;;;;;;4950062;28;20055;-74
2022/08/15 01:16:51;;;;;;;16.67;3.53;;;;;;;;;;4951214;28;20055;-73
2022/08/15 01:19:30;;;;;;;15.07;3.22;;;;;;;;;;4948749;29;20043;-76
2022/08/15 01:22:10;;;;;;;17.83;3.55;;;;;;;;;;4951235;28;20493;-73
2022/08/15 01:24:55;;;;;;;11.63;3.10;;;;;;;;;;4954248;28;20058;-74
2022/08/15 01:27:23;;;;;;;15.93;3.25;;;;;;;;;;4953959;28;20051;-73
2022/08/15 01:29:51;;;;;;;12.00;3.17;;;;;;;;;;4951738;29;20540;-74
2022/08/15 01:32:18;;;;;;;16.08;3.55;;;;;;;;;;4951912;28;20043;-74
2022/08/15 01:34:44;;;;;;;14.75;3.30;;;;;;;;;;4951334;28;20074;-74
2022/08/15 01:37:10;;;;;;;12.68;3.20;;;;;;;;;;4950275;28;20039;-74
2022/08/15 01:40:22;;;;;;;14.70;3.47;;;;;;;;;;4949975;28;20441;-76
2022/08/15 01:42:50;;;;;;;21.25;3.15;;;;;;;;;;4940643;28;20193;-74
2022/08/15 01:45:21;;;;;;;19.58;3.33;;;;;;;;;;4950436;28;20127;-73
2022/08/15 01:47:53;;;;;;;14.25;3.20;;;;;;;;;;4948731;28;20426;-74
2022/08/15 01:50:36;;;;;;;17.33;3.45;;;;;;;;;;4948138;28;20069;-74
2022/08/15 01:53:15;;;;;;;15.82;2.90;;;;;;;;;;4947260;28;20054;-76
2022/08/15 01:55:49;;;;;;;17.40;3.67;;;;;;;;;;4947999;28;20202;-74
2022/08/15 01:58:15;;;;;;;16.25;3.13;;;;;;;;;;4947965;28;20481;-74
2022/08/15 02:00:54;;;;;;;16.65;3.15;;;;;;;;;;4948029;28;20047;-73
2022/08/15 02:03:33;;;;;;;19.40;3.50;;;;;;;;;;4948845;28;20501;-74
2022/08/15 02:06:04;;;;;;;15.63;3.00;;;;;;;;;;4948447;28;20705;-73
2022/08/15 02:08:31;;;;;;;19.05;3.63;;;;;;;;;;4947897;28;20049;-74
2022/08/15 02:10:57;;;;;;;12.32;3.17;;;;;;;;;;4948408;28;20062;-76
2022/08/15 02:13:24;;;;;;;17.77;2.97;;;;;;;;;;4947517;28;20138;-75
2022/08/15 02:15:52;;;;;;;18.08;3.28;;;;;;;;;;4947714;28;20097;-73
2022/08/15 02:18:18;;;;;;;21.23;4.03;;;;;;;;;;4947565;28;20564;-76
2022/08/15 02:20:44;;;;;;;18.05;3.30;;;;;;;;;;4948306;29;20081;-74
2022/08/15 02:23:10;;;;;;;19.35;3.70;;;;;;;;;;4950355;28;20329;-74
2022/08/15 02:25:35;;;;;;;14.77;3.40;;;;;;;;;;4951270;28;20501;-74
2022/08/15 02:28:01;;;;;;;17.83;4.13;;;;;;;;;;4946866;28;20047;-73
2022/08/15 02:30:29;;;;;;;14.88;3.95;;;;;;;;;;4946453;28;20072;-74
2022/08/15 02:32:56;;;;;;;20.52;5.20;;;;;;;;;;4947500;28;20039;-73
2022/08/15 02:35:22;;;;;;;20.25;5.50;;;;;;;;;;4948599;28;20276;-74
2022/08/15 02:37:49;;;;;;;18.85;5.93;;;;;;;;;;4948010;28;20476;-72
2022/08/15 02:40:16;;;;;;;21.27;6.20;;;;;;;;;;4946253;28;20090;-74
2022/08/15 02:42:45;;;;;;;28.55;7.00;;;;;;;;;;4946881;28;20157;-74
2022/08/15 02:45:12;;;;;;;20.70;6.63;;;;;;;;;;4945975;28;20047;-75
2022/08/15 02:47:43;;;;;;;26.52;7.13;;;;;;;;;;4960672;28;20047;-75
2022/08/15 02:50:11;;;;;;;26.67;6.68;;;;;;;;;;4933482;28;20054;-73
2022/08/15 02:52:42;;;;;;;17.65;6.78;;;;;;;;;;4926476;29;20066;-74
2022/08/15 02:55:09;;;;;;;19.40;7.18;;;;;;;;;;4927888;29;20043;-73
2022/08/15 02:57:35;;;;;;;27.48;6.70;;;;;;;;;;4927507;29;20055;-72
2022/08/15 03:00:07;;;;;;;19.02;7.22;;;;;;;;;;4926845;29;20099;-73
2022/08/15 03:02:59;;;;;;;17.75;6.70;;;;;;;;;;4929049;29;20044;-74
2022/08/15 03:05:27;;;;;;;21.52;6.65;;;;;;;;;;4930254;29;20575;-74
2022/08/15 03:07:54;;;;;;;23.10;6.22;;;;;;;;;;4927911;29;20063;-73
2022/08/15 03:10:20;;;;;;;19.65;5.95;;;;;;;;;;4926896;29;20055;-73
2022/08/15 03:12:53;;;;;;;22.17;5.40;;;;;;;;;;4873262;29;1655692;-71
2022/08/15 03:15:21;;;;;;;18.15;5.07;;;;;;;;;;4928307;28;20127;-73
2022/08/15 03:17:49;;;;;;;19.10;5.53;;;;;;;;;;4942671;29;20078;-73
2022/08/15 03:20:15;;;;;;;14.65;4.78;;;;;;;;;;4927686;29;20047;-73
2022/08/15 03:22:43;;;;;;;25.00;4.80;;;;;;;;;;4928216;29;20123;-75
2022/08/15 03:25:10;;;;;;;18.40;4.70;;;;;;;;;;4928015;29;20056;-73
2022/08/15 03:27:36;;;;;;;17.02;5.03;;;;;;;;;;4927918;29;20275;-74
2022/08/15 03:30:07;;;;;;;17.58;4.57;;;;;;;;;;4928421;29;20337;-74
2022/08/15 03:32:51;;;;;;;19.83;4.82;;;;;;;;;;4927713;29;20084;-74
2022/08/15 03:35:20;;;;;;;16.80;4.68;;;;;;;;;;4930938;29;20323;-72
2022/08/15 03:37:47;;;;;;;17.75;5.00;;;;;;;;;;4945751;28;20065;-72
2022/08/15 03:40:14;;;;;;;16.73;4.63;;;;;;;;;;4928404;28;20050;-72
2022/08/15 03:42:54;;;;;;;20.63;4.63;;;;;;;;;;4941114;29;20134;-73
2022/08/15 03:45:21;;;;;;;22.92;5.15;;;;;;;;;;4946397;28;20074;-74
2022/08/15 03:47:47;;;;;;;21.20;5.20;;;;;;;;;;4946576;28;20585;-70
2022/08/15 03:50:14;;;;;;;19.25;5.10;;;;;;;;;;4947817;28;20074;-74
2022/08/15 03:52:51;;;;;;;19.85;4.70;;;;;;;;;;4944837;28;20055;-74
2022/08/15 03:55:18;;;;;;;16.13;4.53;;;;;;;;;;4946668;28;20098;-73
2022/08/15 03:57:45;;;;;;;17.08;4.53;;;;;;;;;;4946142;28;20501;-74
2022/08/15 04:00:13;;;;;;;17.70;4.47;;;;;;;;;;4949819;28;20047;-75
2022/08/15 04:02:39;;;;;;;17.83;4.00;;;;;;;;;;4949282;28;20043;-73
2022/08/15 04:05:07;;;;;;;17.92;4.13;;;;;;;;;;4966845;28;20121;-74
2022/08/15 04:07:36;;;;;;;16.20;4.32;;;;;;;;;;4964508;28;20670;-74
2022/08/15 04:10:09;;;;;;;15.80;4.25;;;;;;;;;;4967702;28;20461;-76
2022/08/15 04:12:39;;;;;;;20.95;4.30;;;;;;;;;;4969208;28;20109;-73
2022/08/15 04:15:09;;;;;;;19.60;4.18;;;;;;;;;;4969710;28;20057;-71
2022/08/15 04:17:35;;;;;;;17.05;3.80;;;;;;;;;;4970680;28;20054;-75
2022/08/15 04:20:02;;;;;;;16.13;4.72;;;;;;;;;;4968067;28;20377;-74
2022/08/15 04:22:35;;;;;;;20.30;4.47;;;;;;;;;;4968707;28;20047;-74
2022/08/15 04:25:03;;;;;;;17.33;3.80;;;;;;;;;;4970064;28;20151;-72
2022/08/15 04:27:29;;;;;;;12.68;3.63;;;;;;;;;;4967776;28;20110;-74
2022/08/15 04:29:55;;;;;;;15.52;3.75;;;;;;;;;;4951899;28;20255;-75
2022/08/15 04:32:24;;;;;;;17.73;4.10;;;;;;;;;;4952066;28;20456;-74
2022/08/15 04:34:50;;;;;;;13.82;4.15;;;;;;;;;;4951769;28;20481;-73
2022/08/15 04:37:16;;;;;;;13.93;3.17;;;;;;;;;;4952090;28;20051;-76
2022/08/15 04:39:42;;;;;;;13.85;3.60;;;;;;;;;;4951451;28;20043;-74
2022/08/15 04:42:08;;;;;;;13.70;3.55;;;;;;;;;;4952217;28;20047;-74
2022/08/15 04:44:36;;;;;;;6.35;2.65;;;;;;;;;;4953332;28;20055;-74
2022/08/15 04:47:02;;;;;;;12.25;2.92;;;;;;;;;;4951446;28;20482;-73
2022/08/15 04:49:28;;;;;;;14.25;3.45;;;;;;;;;;4948536;28;20058;-74
2022/08/15 04:51:54;;;;;;;14.65;2.88;;;;;;;;;;4948036;28;20058;-72
2022/08/15 04:54:20;;;;;;;13.48;3.15;;;;;;;;;;4949235;28;20071;-74
2022/08/15 04:56:46;;;;;;;9.10;2.97;;;;;;;;;;4949143;28;20052;-72
2022/08/15 04:59:12;;;;;;;10.13;2.53;;;;;;;;;;4947948;28;20479;-73
2022/08/15 05:01:37;;;;;;;11.82;2.72;;;;;;;;;;4949759;28;20338;-74
2022/08/15 05:04:03;;;;;;;12.25;3.00;;;;;;;;;;4951519;28;20051;-73
2022/08/15 05:06:29;;;;;;;7.95;2.30;;;;;;;;;;4951961;28;20145;-73
2022/08/15 05:08:55;;;;;;;9.13;2.63;;;;;;;;;;4950931;28;20048;-74
2022/08/15 05:11:23;;;;;;;9.85;2.38;;;;;;;;;;4950700;28;20074;-74
2022/08/15 05:13:48;;;;;;;14.05;2.65;;;;;;;;;;4949702;28;20051;-73
2022/08/15 05:16:14;;;;;;;8.65;2.17;;;;;;;;;;4951468;28;20051;-73
2022/08/15 05:18:42;;;;;;;8.18;2.28;;;;;;;;;;4951053;28;20059;-74
2022/08/15 05:21:10;;;;;;;13.02;2.42;;;;;;;;;;4947741;28;20279;-73
2022/08/15 05:23:38;;;;;;;8.85;2.30;;;;;;;;;;4949907;28;20465;-73
2022/08/15 05:26:05;;;;;;;8.27;2.42;;;;;;;;;;4952037;28;20047;-74
2022/08/15 05:28:31;;;;;;;12.68;2.25;;;;;;;;;;4950725;28;20047;-74
2022/08/15 05:30:59;;;;;;;7.78;2.20;;;;;;;;;;4947876;29;20055;-74
2022/08/15 05:33:28;;;;;;;12.95;2.53;;;;;;;;;;4948627;28;20051;-75
2022/08/15 05:35:57;;;;;;;8.43;2.28;;;;;;;;;;4949347;28;20047;-75
2022/08/15 05:38:27;;;;;;;7.63;2.10;;;;;;;;;;4949504;28;20058;-74
2022/08/15 05:41:15;;;;;;;7.50;2.40;;;;;;;;;;4948292;28;20043;-74
2022/08/15 05:44:02;;;;;;;4.40;1.85;;;;;;;;;;4951201;28;20050;-77
2022/08/15 05:47:04;;;;;;;5.10;1.92;;;;;;;;;;4952994;28;20047;-74
2022/08/15 05:49:30;;;;;;;5.22;2.00;;;;;;;;;;4940458;29;20541;-73
2022/08/15 05:52:15;;;;;;;4.10;1.85;;;;;;;;;;4928701;29;20048;-75
2022/08/15 05:55:18;;;;;;;4.75;1.88;;;;;;;;;;4932859;29;20048;-75
2022/08/15 05:58:02;;;;;;;4.53;1.80;;;;;;;;;;4932596;29;20083;-73
2022/08/15 06:00:29;;;;;;;8.53;1.93;;;;;;;;;;4933737;29;20057;-74
2022/08/15 06:02:57;;;;;;;7.43;2.13;;;;;;;;;;4951544;28;20042;-75
2022/08/15 06:05:29;;;;;;;6.78;2.25;;;;;;;;;;4969672;28;20149;-75
2022/08/15 06:07:58;;;;;;;6.78;2.10;;;;;;;;;;4968115;28;20158;-76
2022/08/15 06:10:30;;;;;;;8.20;2.20;;;;;;;;;;4968128;28;20047;-72
2022/08/15 06:13:11;;;;;;;7.47;2.08;;;;;;;;;;4967978;28;20051;-76
2022/08/15 06:15:58;;;;;;;9.73;2.40;;;;;;;;;;4968685;28;20050;-74
2022/08/15 06:18:25;;;;;;;5.53;2.03;;;;;;;;;;4968212;28;20571;-75
2022/08/15 06:21:19;;;;;;;5.72;2.17;;;;;;;;;;4966651;28;20118;-73
2022/08/15 06:23:59;;;;;;;8.63;2.53;;;;;;;;;;4966941;28;20045;-74
2022/08/15 06:26:36;;;;;;;9.43;2.20;;;;;;;;;;4968355;28;20118;-73
2022/08/15 06:29:11;;;;;;;3.28;1.85;;;;;;;;;;4970823;28;20070;-74
2022/08/15 06:31:40;;;;;;;5.15;1.90;;;;;;;;;;4970525;28;20047;-75
2022/08/15 06:34:27;;;;;;;9.60;2.00;;;;;;;;;;4969563;28;20047;-75
2022/08/15 06:37:07;;;;;;;5.70;1.52;;;;;;;;;;4955189;28;20642;-77
2022/08/15 06:39:58;;;;;;;6.82;1.90;;;;;;;;;;4936342;28;20282;-75
2022/08/15 06:42:41;;;;;;;9.98;1.95;;;;;;;;;;4944386;29;20095;-75
2022/08/15 06:45:14;;;;;;;5.82;1.85;;;;;;;;;;4929490;29;20059;-74
2022/08/15 06:47:41;;;;;;;10.00;1.90;;;;;;;;;;4931076;29;20051;-74
2022/08/15 06:50:21;;;;;;;6.97;1.80;;;;;;;;;;4931336;29;20054;-75
2022/08/15 06:52:56;;;;;;;4.40;2.00;;;;;;;;;;4930323;28;20078;-76
2022/08/15 06:55:25;;;;;;;9.00;1.75;;;;;;;;;;4947846;28;20051;-75
2022/08/15 06:58:03;;;;;;;10.40;2.08;;;;;;;;;;4947792;28;20062;-76
2022/08/15 07:00:41;;;;;;;7.68;1.70;;;;;;;;;;4949559;28;20202;-77
2022/08/15 07:03:30;;;;;;;7.72;1.92;;;;;;;;;;4952017;28;20161;-76
2022/08/15 07:05:57;;;;;;;4.38;1.98;;;;;;;;;;4951185;28;20057;-74
2022/08/15 07:08:45;;;;;;;4.55;2.13;;;;;;;;;;4949898;28;20047;-76
2022/08/15 07:11:50;;;;;;;4.00;2.00;;;;;;;;;;4960339;28;20055;-76
2022/08/15 07:14:19;;;;;;;3.13;1.70;;;;;;;;;;4968173;28;20054;-75
2022/08/15 07:16:54;;;;;;;5.22;2.05;;;;;;;;;;4968172;28;20046;-74
2022/08/15 07:19:20;;;;;;;6.07;1.98;;;;;;;;;;4930245;29;20079;-76
2022/08/15 07:21:46;;;;;;;4.53;1.80;;;;;;;;;;4930326;29;20524;-75
2022/08/15 07:24:15;;;;;;;9.15;1.95;;;;;;;;;;4929439;29;20565;-76
2022/08/15 07:27:03;;;;;;;3.83;2.10;;;;;;;;;;4933169;28;20059;-78
2022/08/15 07:29:47;;;;;;;6.00;1.88;;;;;;;;;;4933604;29;20086;-76
2022/08/15 07:32:25;;;;;;;14.10;2.00;;;;;;;;;;4949827;29;20095;-79
2022/08/15 07:35:11;;;;;;;6.78;1.80;;;;;;;;;;4953563;28;20106;-78
2022/08/15 07:37:59;;;;;;;3.95;1.83;;;;;;;;;;4932919;28;20452;-77
2022/08/15 07:40:36;;;;;;;5.68;2.10;;;;;;;;;;4932039;29;20075;-76
2022/08/15 07:43:25;;;;;;;5.20;2.42;;;;;;;;;;4932103;29;20089;-76
2022/08/15 07:46:04;;;;;;;5.60;2.40;;;;;;;;;;4948593;28;20039;-75
2022/08/15 07:48:32;;;;;;;5.72;2.60;;;;;;;;;;4952654;28;20047;-75
2022/08/15 07:51:14;;;;;;;4.53;1.80;;;;;;;;;;4953007;28;20130;-76
2022/08/15 07:53:55;;;;;;;4.70;1.90;;;;;;;;;;4954113;28;20093;-77
2022/08/15 07:56:22;;;;;;;5.45;1.80;;;;;;;;;;4958523;28;20051;-76
2022/08/15 07:58:52;;;;;;;8.05;2.28;;;;;;;;;;4958754;28;20062;-75
2022/08/15 08:01:30;;;;;;;7.90;2.03;;;;;;;;;;4945227;28;20043;-76
2022/08/15 08:04:05;;;;;;;3.80;1.80;;;;;;;;;;4953200;28;20210;-76
2022/08/15 08:06:40;;;;;;;5.45;1.88;;;;;;;;;;4949349;28;20086;-76
2022/08/15 08:09:06;;;;;;;5.50;2.22;;;;;;;;;;4933341;29;20047;-75
2022/08/15 08:11:44;;;;;;;4.97;1.80;;;;;;;;;;4944245;29;20056;-75
2022/08/15 08:14:39;;;;;;;6.30;1.85;;;;;;;;;;4950434;28;20054;-75
2022/08/15 08:17:15;;;;;;;6.25;2.00;;;;;;;;;;4949908;29;20051;-77
2022/08/15 08:20:05;;;;;;;4.35;1.98;;;;;;;;;;4965901;28;20047;-76
2022/08/15 08:22:55;;;;;;;9.75;2.28;;;;;;;;;;4969380;28;20043;-76
2022/08/15 08:25:35;;;;;;;5.80;2.20;;;;;;;;;;4971074;28;20055;-75
2022/08/15 08:28:29;;;;;;;6.07;1.88;;;;;;;;;;4970007;28;20061;-77
2022/08/15 08:31:32;;;;;;;4.57;2.13;;;;;;;;;;4969664;28;20051;-76
2022/08/15 08:34:09;;;;;;;3.63;1.92;;;;;;;;;;4969236;28;20685;-76
2022/08/15 08:36:41;;;;;;;3.90;1.77;;;;;;;;;;4954248;28;20119;-77
2022/08/15 08:39:20;;;;;;;9.38;2.20;;;;;;;;;;4949564;28;20505;-76
2022/08/15 08:42:14;;;;;;;4.82;2.00;;;;;;;;;;4950510;28;20043;-78
2022/08/15 08:44:40;;;;;;;6.15;2.10;;;;;;;;;;4950148;28;20051;-75
2022/08/15 08:47:17;;;;;;;7.47;2.00;;;;;;;;;;4949672;28;20066;-76
2022/08/15 08:50:04;;;;;;;9.30;2.40;;;;;;;;;;4950215;28;20051;-76
2022/08/15 08:52:47;;;;;;;4.18;2.15;;;;;;;;;;4955624;28;20146;-76
2022/08/15 08:55:38;;;;;;;4.15;2.20;;;;;;;;;;4969661;28;20047;-74
2022/08/15 08:58:10;;;;;;;4.53;1.83;;;;;;;;;;4949712;28;20425;-75
2022/08/15 09:00:47;;;;;;;6.10;1.90;;;;;;;;;;4949279;28;20406;-75
2022/08/15 09:03:17;;;;;;;6.03;1.83;;;;;;;;;;4949200;28;20050;-74
2022/08/15 09:05:51;;;;;;;5.40;2.17;;;;;;;;;;4949951;28;20043;-76
2022/08/15 09:08:32;;;;;;;7.85;2.22;;;;;;;;;;4952267;28;20047;-75
2022/08/15 09:11:04;;;;;;;5.20;2.10;;;;;;;;;;4953553;28;20043;-76
2022/08/15 09:13:34;;;;;;;6.85;2.10;;;;;;;;;;4951211;28;20059;-79
2022/08/15 09:16:23;;;;;;;4.45;2.00;;;;;;;;;;4950666;28;20055;-77
2022/08/15 09:19:06;;;;;;;5.40;1.98;;;;;;;;;;4953339;28;20070;-79
2022/08/15 09:21:33;;;;;;;5.32;2.00;;;;;;;;;;4952037;28;20044;-75
2022/08/15 09:24:00;;;;;;;5.60;2.00;;;;;;;;;;4951361;28;20047;-77
2022/08/15 09:26:47;;;;;;;8.82;2.00;;;;;;;;;;4951179;28;20055;-75
2022/08/15 09:29:18;;;;;;;5.65;2.10;;;;;;;;;;4950011;28;20055;-75
2022/08/15 09:31:56;;;;;;;3.88;1.95;;;;;;;;;;4950100;28;20051;-76
2022/08/15 09:34:40;;;;;;;3.92;1.90;;;;;;;;;;4949468;28;20122;-77
2022/08/15 09:37:34;;;;;;;7.20;2.15;;;;;;;;;;4964545;28;20047;-76
2022/08/15 09:40:18;;;;;;;5.93;2.30;;;;;;;;;;4933773;28;20058;-76
2022/08/15 09:42:59;;;;;;;;;;;;;;;;;;4933477;28;20052;-78
2022/08/15 09:45:43;;;;;;;6.80;2.13;;;;;;;;;;4933620;29;20092;-76
2022/08/15 09:48:45;;;;;;;4.47;1.90;;;;;;;;;;4949726;29;20082;-76
2022/08/15 09:51:28;;;;;;;6.95;2.28;;;;;;;;;;4937394;29;20134;-78
2022/08/15 09:54:06;;;;;;;6.45;2.45;;;;;;;;;;4934925;29;20577;-78
2022/08/15 09:56:36;;;;;;;6.45;2.08;;;;;;;;;;4930751;29;20162;-77
2022/08/15 09:59:02;;;;;;;9.27;2.80;;;;;;;;;;4931451;29;20494;-77
2022/08/15 10:01:29;;;;;;;7.80;2.65;;;;;;;;;;4945717;28;20057;-78
2022/08/15 10:03:58;;;;;;;8.77;3.25;;;;;;;;;;4951641;28;20056;-79
2022/08/15 10:06:30;;;;;;;10.70;3.45;;;;;;;;;;4951100;28;20055;-78
2022/08/15 10:08:56;;;;;;;11.52;3.28;;;;;;;;;;4951231;28;20054;-76
2022/08/15 10:11:32;;;;;;;11.25;3.63;;;;;;;;;;4952203;28;20047;-77
2022/08/15 10:14:05;;;;;;;13.25;3.88;;;;;;;;;;4951593;28;20564;-76
2022/08/15 10:16:38;;;;;;;8.82;3.83;;;;;;;;;;4949170;28;20501;-76
2022/08/15 10:19:31;;;;;;;9.70;3.58;;;;;;;;;;4949242;28;20493;-76
2022/08/15 10:22:01;;;;;;;11.52;3.80;;;;;;;;;;4948163;28;20453;-75
2022/08/15 10:24:32;;;;;;;13.45;4.10;;;;;;;;;;4948289;28;20171;-75
2022/08/15 10:27:09;;;;;;;9.95;4.00;;;;;;;;;;4948370;28;20102;-76
2022/08/15 10:29:47;;;;;;;10.82;4.30;;;;;;;;;;4934141;28;20528;-75
2022/08/15 10:32:28;;;;;;;16.85;4.25;;;;;;;;;;4931099;29;20107;-73
2022/08/15 10:35:01;;;;;;;13.52;4.22;;;;;;;;;;4948486;28;20127;-74
2022/08/15 10:37:36;;;;;;;14.93;4.57;;;;;;;;;;4950431;28;20597;-77
2022/08/15 10:40:27;;;;;;;14.57;4.28;;;;;;;;;;4951339;28;20078;-77
2022/08/15 10:43:36;;;;;;;15.20;4.40;;;;;;;;;;4952672;28;20058;-74
2022/08/15 10:46:21;;;;;;;14.60;4.55;;;;;;;;;;4951786;28;20117;-76
2022/08/15 10:48:53;;;;;;;17.70;4.85;;;;;;;;;;4950262;28;20071;-75
2022/08/15 10:51:43;;;;;;;10.63;4.78;;;;;;;;;;4948838;28;20158;-75
2022/08/15 10:54:33;;;;;;;13.77;4.93;;;;;;;;;;4949290;28;20131;-75
2022/08/15 10:57:00;;;;;;;12.57;4.32;;;;;;;;;;4949734;28;20043;-78
2022/08/15 10:59:33;;;;;;;9.65;3.90;;;;;;;;;;4948782;28;20086;-75
2022/08/15 11:02:05;;;;;;;;;;;;;;;;;;4934397;29;20070;-74
2022/08/15 11:04:37;;;;;;;21.15;4.40;;;;;;;;;;4929221;29;19930;-75
2022/08/15 11:07:29;;;;;;;22.05;4.68;;;;;;;;;;4928352;29;20056;-75
2022/08/15 11:09:58;;;;;;;10.07;4.18;;;;;;;;;;4963147;28;20105;-76
2022/08/15 11:12:31;;;;;;;18.67;4.80;;;;;;;;;;4968101;28;20131;-76
2022/08/15 11:15:12;;;;;;;15.93;4.68;;;;;;;;;;4968832;28;20102;-77
2022/08/15 11:17:44;;;;;;;13.57;4.60;;;;;;;;;;4969370;28;20078;-76
2022/08/15 11:20:19;;;;;;;16.70;5.00;;;;;;;;;;4964700;28;20051;-74
2022/08/15 11:22:52;;;;;;;15.57;4.75;;;;;;;;;;4951269;29;20047;-77
2022/08/15 11:25:28;;;;;;;11.85;4.68;;;;;;;;;;4956950;28;20551;-76
2022/08/15 11:28:21;;;;;;;13.65;4.93;;;;;;;;;;4955915;28;20058;-77
2022/08/15 11:30:47;;;;;;;19.10;4.70;;;;;;;;;;4969035;28;20448;-79
2022/08/15 11:33:40;;;;;;;11.18;4.43;;;;;;;;;;4954927;28;20316;-77
2022/08/15 11:36:16;;;;;;;15.07;4.97;;;;;;;;;;4953415;28;20483;-77
2022/08/15 11:38:46;;;;;;;11.98;4.93;;;;;;;;;;4954283;28;20099;-76
2022/08/15 11:41:20;;;;;;;10.90;4.28;;;;;;;;;;4953763;28;20181;-76
2022/08/15 11:43:48;;;;;;;14.20;4.70;;;;;;;;;;4967528;28;20112;-76
2022/08/15 11:46:16;;;;;;;16.13;5.10;;;;;;;;;;4972449;28;20144;-76
2022/08/15 11:48:48;;;;;;;13.15;4.60;;;;;;;;;;4971241;28;20049;-77
2022/08/15 11:51:14;;;;;;;14.70;4.20;;;;;;;;;;4952375;28;20430;-76
2022/08/15 11:54:18;;;;;;;14.52;5.00;;;;;;;;;;4952089;28;20118;-76
2022/08/15 11:56:46;;;;;;;15.95;5.07;;;;;;;;;;4953012;28;20445;-79
2022/08/15 11:59:29;;;;;;;13.60;5.03;;;;;;;;;;4957944;28;20073;-74
2022/08/15 12:02:27;;;;;;;14.85;4.43;;;;;;;;;;4972251;28;20054;-75
2022/08/15 12:04:53;;;;;;;11.13;4.50;;;;;;;;;;4972761;28;20058;-77
2022/08/15 12:07:27;;;;;;;12.27;4.38;;;;;;;;;;4972754;28;20051;-75
2022/08/15 12:10:04;;;;;;;14.45;4.88;;;;;;;;;;4974071;28;20059;-79
2022/08/15 12:12:42;;;;;;;12.18;4.68;;;;;;;;;;4973305;28;20206;-76
2022/08/15 12:15:38;;;;;;;13.43;4.38;;;;;;;;;;4967674;28;20043;-77
2022/08/15 12:18:23;;;;;;;18.55;4.75;;;;;;;;;;4971441;28;20043;-76
2022/08/15 12:20:55;;;;;;;11.25;4.20;;;;;;;;;;4965059;28;20133;-77
2022/08/15 12:23:27;;;;;;;12.35;4.07;;;;;;;;;;4955093;28;20205;-76
2022/08/15 12:26:00;;;;;;;15.93;4.70;;;;;;;;;;4952013;28;20051;-75
2022/08/15 12:28:30;;;;;;;9.38;4.13;;;;;;;;;;4947109;28;20055;-78
2022/08/15 12:31:07;;;;;;;13.45;4.30;;;;;;;;;;4933111;29;20513;-76
2022/08/15 12:33:33;;;;;;;12.13;4.45;;;;;;;;;;4946288;28;20364;-77
2022/08/15 12:36:01;;;;;;;13.60;4.90;;;;;;;;;;4970825;28;20063;-74
2022/08/15 12:38:27;;;;;;;12.95;4.55;;;;;;;;;;4969862;28;20543;-76
2022/08/15 12:40:53;;;;;;;15.00;4.45;;;;;;;;;;4971546;28;20039;-78
2022/08/15 12:43:19;;;;;;;10.77;4.60;;;;;;;;;;4973643;28;20464;-77
2022/08/15 12:45:45;;;;;;;15.38;4.70;;;;;;;;;;4975258;28;20097;-78
2022/08/15 12:48:22;;;;;;;12.90;4.85;;;;;;;;;;4974679;28;20051;-78
2022/08/15 12:50:48;;;;;;;13.70;4.50;;;;;;;;;;4972281;28;20476;-77
2022/08/15 12:53:14;;;;;;;17.65;4.70;;;;;;;;;;4974191;28;20555;-75
2022/08/15 12:55:42;;;;;;;15.05;4.80;;;;;;;;;;4974281;28;20070;-77
2022/08/15 12:58:09;;;;;;;10.52;4.28;;;;;;;;;;4972666;28;20548;-76
2022/08/15 13:00:36;;;;;;;14.52;4.28;;;;;;;;;;4970934;28;20562;-76
2022/08/15 13:03:20;;;;;;;12.85;4.60;;;;;;;;;;4970463;28;20118;-76
2022/08/15 13:06:03;;;;;;;9.40;4.10;;;;;;;;;;4970379;28;20129;-76
2022/08/15 13:08:29;;;;;;;13.35;4.70;;;;;;;;;;4948437;28;20044;-76
2022/08/15 13:10:55;;;;;;;12.82;4.05;;;;;;;;;;4950717;28;20047;-78
2022/08/15 13:13:21;;;;;;;17.48;4.43;;;;;;;;;;4950487;28;20047;-77
2022/08/15 13:15:49;;;;;;;10.73;3.83;;;;;;;;;;4952589;28;20268;-76
2022/08/15 13:18:23;;;;;;;9.63;3.78;;;;;;;;;;4944777;29;20055;-75
2022/08/15 13:23:51;;;;;;;16.27;4.63;;;;;;;;;;4987248;28;20137;-76
2022/08/15 13:26:20;;;;;;;15.25;4.80;;;;;;;;;;4988486;28;20057;-76
2022/08/15 13:28:48;;;;;;;14.00;4.50;;;;;;;;;;4985979;28;20101;-75
2022/08/15 13:31:18;;;;;;;9.50;4.15;;;;;;;;;;4986091;28;20077;-75
2022/08/15 13:33:46;;;;;;;17.52;4.68;;;;;;;;;;4986169;28;20125;-76
2022/08/15 13:36:14;;;;;;;11.52;4.32;;;;;;;;;;4985670;28;20080;-77
2022/08/15 13:38:46;;;;;;;12.38;4.57;;;;;;;;;;4986086;28;20057;-76
2022/08/15 13:41:17;;;;;;;13.65;4.45;;;;;;;;;;4987278;28;20065;-76
2022/08/15 13:43:44;;;;;;;12.85;4.18;;;;;;;;;;4986386;28;20058;-76
2022/08/15 13:46:12;;;;;;;13.10;4.35;;;;;;;;;;4987063;28;20062;-76
2022/08/15 13:48:43;;;;;;;11.48;4.00;;;;;;;;;;4987834;28;20055;-79
2022/08/15 13:51:32;;;;;;;12.93;4.07;;;;;;;;;;4988814;28;20050;-78
2022/08/15 13:53:58;;;;;;;12.43;3.92;;;;;;;;;;4972452;28;20520;-78
2022/08/15 13:56:25;;;;;;;14.57;4.15;;;;;;;;;;4970494;28;20051;-78
2022/08/15 13:58:52;;;;;;;11.55;4.50;;;;;;;;;;4965055;28;20047;-78
2022/08/15 14:01:21;;;;;;;15.00;4.45;;;;;;;;;;4934246;28;20060;-77
2022/08/15 14:03:55;;;;;;;10.90;3.67;;;;;;;;;;4933428;29;20042;-79
2022/08/15 14:06:21;;;;;;;17.45;4.03;;;;;;;;;;4932504;29;20099;-76
2022/08/15 14:08:47;;;;;;;12.35;4.13;;;;;;;;;;4932921;29;20449;-78
2022/08/15 14:11:14;;;;;;;12.20;4.40;;;;;;;;;;4943968;29;20047;-77
2022/08/15 14:13:40;;;;;;;15.57;4.13;;;;;;;;;;4954627;28;20055;-77
2022/08/15 14:16:08;;;;;;;12.48;3.80;;;;;;;;;;4965139;28;20094;-75
2022/08/15 14:18:35;;;;;;;10.32;3.50;;;;;;;;;;4974619;28;20122;-78
2022/08/15 14:21:06;;;;;;;13.27;4.03;;;;;;;;;;4970798;28;20054;-76
2022/08/15 14:23:34;;;;;;;18.48;4.20;;;;;;;;;;4969204;28;20174;-79
2022/08/15 14:26:04;;;;;;;17.90;3.97;;;;;;;;;;4970828;28;20285;-77
2022/08/15 14:28:32;;;;;;;16.40;3.88;;;;;;;;;;4968250;28;20457;-73
2022/08/15 14:30:59;;;;;;;13.00;3.85;;;;;;;;;;4967438;28;20764;-77
2022/08/15 14:33:27;;;;;;;13.93;3.78;;;;;;;;;;4954027;28;20501;-76
2022/08/15 14:35:57;;;;;;;12.18;4.18;;;;;;;;;;4947618;28;20047;-76
2022/08/15 14:38:28;;;;;;;15.32;4.10;;;;;;;;;;4946942;28;20414;-75
2022/08/15 14:40:55;;;;;;;11.68;4.00;;;;;;;;;;4947312;28;20134;-76
2022/08/15 14:43:22;;;;;;;14.63;4.13;;;;;;;;;;4943090;29;20103;-75
2022/08/15 14:45:50;;;;;;;11.48;3.58;;;;;;;;;;4928673;29;20086;-77
2022/08/15 14:48:21;;;;;;;13.93;4.00;;;;;;;;;;4928575;29;20102;-75
2022/08/15 14:50:48;;;;;;;16.85;3.63;;;;;;;;;;4947332;28;20117;-77
2022/08/15 14:53:14;;;;;;;10.23;3.70;;;;;;;;;;4950470;28;20138;-75
2022/08/15 14:55:42;;;;;;;11.88;3.53;;;;;;;;;;4950920;28;20493;-75
2022/08/15 14:58:07;;;;;;;17.00;4.00;;;;;;;;;;4951945;28;20102;-76
2022/08/15 15:00:35;;;;;;;13.90;3.80;;;;;;;;;;4946891;28;20052;-75
2022/08/15 15:03:01;;;;;;;14.35;3.92;;;;;;;;;;4929558;29;20114;-75
2022/08/15 15:05:28;;;;;;;13.80;3.90;;;;;;;;;;4928296;29;20794;-75
2022/08/15 15:07:57;;;;;;;13.55;4.03;;;;;;;;;;4962650;28;20038;-76
2022/08/15 15:10:25;;;;;;;16.83;3.80;;;;;;;;;;4967726;28;20042;-76
2022/08/15 15:13:05;;;;;;;9.63;3.40;;;;;;;;;;4967655;28;20058;-76
2022/08/15 15:15:34;;;;;;;17.85;4.05;;;;;;;;;;4940813;28;20052;-75